PUA1502 SUDU-SUMU
Flight info
| Callsign | PUA1502 |
|---|---|
| Flight time | 0h 22m |
| Altitude | 17000 |
| Route | ASIVA W19 MONSA |
| Aircraft | A320/M-SDE3FGHIRWY/LB1 |
Departure
| Time | 2026-05-08 17:55 |
|---|---|
| Airport | Santa Bernardina International Airport (SUDU) |
Arrival
| Time | 2026-05-08 18:17 |
|---|---|
| Airport | Carrasco General Cesáreo L. Berisso International Airport (SUMU) |
| Time | Latitude | Longitude | Altitude | Speed | Heading |
|---|---|---|---|---|---|
| 2026-05-08 17:36 | -33.35756 | -56.51034 | 284 ft | 0 kts | 340° |
| 2026-05-08 17:45 | -33.35760 | -56.51032 | 285 ft | 3 kts | 340° |
| 2026-05-08 17:45 | -33.35785 | -56.51022 | 291 ft | 4 kts | 352° |
| 2026-05-08 17:46 | -33.35803 | -56.51025 | 291 ft | 2 kts | 69° |
| 2026-05-08 17:46 | -33.35803 | -56.51026 | 291 ft | 3 kts | 69° |
| 2026-05-08 17:49 | -33.35800 | -56.51015 | 289 ft | 3 kts | 70° |
| 2026-05-08 17:49 | -33.35794 | -56.50996 | 289 ft | 3 kts | 71° |
| 2026-05-08 17:49 | -33.35795 | -56.50924 | 293 ft | 11 kts | 117° |
| 2026-05-08 17:49 | -33.35838 | -56.50880 | 296 ft | 6 kts | 153° |
| 2026-05-08 17:50 | -33.35911 | -56.50858 | 291 ft | 14 kts | 172° |
| 2026-05-08 17:50 | -33.35945 | -56.50772 | 291 ft | 12 kts | 88° |
| 2026-05-08 17:50 | -33.35942 | -56.50682 | 292 ft | 10 kts | 88° |
| 2026-05-08 17:50 | -33.35937 | -56.50602 | 291 ft | 9 kts | 85° |
| 2026-05-08 17:51 | -33.35930 | -56.50498 | 291 ft | 22 kts | 86° |
| 2026-05-08 17:51 | -33.35915 | -56.50312 | 288 ft | 22 kts | 83° |
| 2026-05-08 17:51 | -33.35883 | -56.50142 | 284 ft | 20 kts | 39° |
| 2026-05-08 17:51 | -33.35759 | -56.50075 | 285 ft | 19 kts | 27° |
| 2026-05-08 17:52 | -33.35635 | -56.50012 | 284 ft | 20 kts | 22° |
| 2026-05-08 17:52 | -33.35506 | -56.49950 | 286 ft | 20 kts | 19° |
| 2026-05-08 17:52 | -33.35263 | -56.49825 | 289 ft | 19 kts | 20° |
| 2026-05-08 17:53 | -33.35145 | -56.49766 | 292 ft | 18 kts | 23° |
| 2026-05-08 17:53 | -33.35033 | -56.49705 | 288 ft | 17 kts | 26° |
| 2026-05-08 17:53 | -33.35010 | -56.49628 | 284 ft | 11 kts | 107° |
| 2026-05-08 17:53 | -33.35051 | -56.49551 | 284 ft | 11 kts | 124° |
| 2026-05-08 17:54 | -33.35108 | -56.49526 | 282 ft | 5 kts | 197° |
| 2026-05-08 17:54 | -33.35113 | -56.49528 | 282 ft | 1 kts | 199° |
| 2026-05-08 17:54 | -33.35427 | -56.49694 | 281 ft | 95 kts | 204° |
| 2026-05-08 17:54 | -33.36278 | -56.50133 | 355 ft | 163 kts | 203° |
| 2026-05-08 17:55 | -33.37353 | -56.50685 | 1181 ft | 168 kts | 209° |
| 2026-05-08 17:55 | -33.38433 | -56.51214 | 2137 ft | 171 kts | 204° |
| 2026-05-08 17:55 | -33.39700 | -56.51152 | 2540 ft | 200 kts | 172° |
| 2026-05-08 17:55 | -33.41080 | -56.50640 | 2979 ft | 214 kts | 168° |
| 2026-05-08 17:56 | -33.42531 | -56.50049 | 3452 ft | 227 kts | 168° |
| 2026-05-08 17:56 | -33.44082 | -56.49419 | 3937 ft | 241 kts | 168° |
| 2026-05-08 17:56 | -33.45679 | -56.48778 | 4692 ft | 244 kts | 169° |
| 2026-05-08 17:56 | -33.47287 | -56.48144 | 5431 ft | 250 kts | 169° |
| 2026-05-08 17:57 | -33.48982 | -56.47492 | 6201 ft | 261 kts | 169° |
| 2026-05-08 17:57 | -33.50749 | -56.46821 | 6920 ft | 271 kts | 169° |
| 2026-05-08 17:57 | -33.52569 | -56.46133 | 7679 ft | 277 kts | 169° |
| 2026-05-08 17:57 | -33.54424 | -56.45434 | 8539 ft | 282 kts | 168° |
| 2026-05-08 17:58 | -33.56310 | -56.44727 | 9421 ft | 286 kts | 168° |
| 2026-05-08 17:58 | -33.58218 | -56.44011 | 10251 ft | 288 kts | 167° |
| 2026-05-08 17:58 | -33.60137 | -56.43291 | 11085 ft | 290 kts | 167° |
| 2026-05-08 17:58 | -33.62069 | -56.42569 | 11934 ft | 292 kts | 167° |
| 2026-05-08 17:59 | -33.64007 | -56.41844 | 12800 ft | 292 kts | 167° |
| 2026-05-08 17:59 | -33.65946 | -56.41116 | 13672 ft | 291 kts | 167° |
| 2026-05-08 17:59 | -33.67874 | -56.40392 | 14478 ft | 290 kts | 167° |
| 2026-05-08 17:59 | -33.69787 | -56.39671 | 15294 ft | 287 kts | 167° |
| 2026-05-08 18:00 | -33.71696 | -56.38951 | 15947 ft | 293 kts | 168° |
| 2026-05-08 18:00 | -33.75903 | -56.37391 | 16267 ft | 339 kts | 167° |
| 2026-05-08 18:00 | -33.78230 | -56.36528 | 16406 ft | 360 kts | 167° |
| 2026-05-08 18:01 | -33.80651 | -56.35620 | 16591 ft | 378 kts | 167° |
| 2026-05-08 18:01 | -33.83183 | -56.34661 | 16725 ft | 384 kts | 166° |
| 2026-05-08 18:01 | -33.85741 | -56.33716 | 16743 ft | 384 kts | 168° |
| 2026-05-08 18:01 | -33.88310 | -56.32856 | 16741 ft | 383 kts | 169° |
| 2026-05-08 18:02 | -33.90891 | -56.32048 | 16741 ft | 383 kts | 169° |
| 2026-05-08 18:02 | -33.92602 | -56.31526 | 16741 ft | 383 kts | 170° |
| 2026-05-08 18:02 | -33.96055 | -56.30480 | 16742 ft | 382 kts | 169° |
| 2026-05-08 18:02 | -33.98622 | -56.29692 | 16734 ft | 378 kts | 169° |
| 2026-05-08 18:03 | -34.01111 | -56.28908 | 16731 ft | 361 kts | 169° |
| 2026-05-08 18:03 | -34.03493 | -56.28145 | 16607 ft | 349 kts | 169° |
| 2026-05-08 18:03 | -34.05815 | -56.27400 | 16352 ft | 343 kts | 169° |
| 2026-05-08 18:03 | -34.08103 | -56.26669 | 16088 ft | 337 kts | 169° |
| 2026-05-08 18:04 | -34.10346 | -56.25956 | 15832 ft | 331 kts | 169° |
| 2026-05-08 18:04 | -34.12515 | -56.25268 | 15705 ft | 322 kts | 169° |
| 2026-05-08 18:04 | -34.14647 | -56.24589 | 15568 ft | 313 kts | 169° |
| 2026-05-08 18:04 | -34.16734 | -56.23924 | 15356 ft | 308 kts | 169° |
| 2026-05-08 18:05 | -34.18797 | -56.23267 | 15071 ft | 305 kts | 169° |
| 2026-05-08 18:05 | -34.20846 | -56.22615 | 14785 ft | 304 kts | 169° |
| 2026-05-08 18:05 | -34.22882 | -56.21968 | 14503 ft | 302 kts | 169° |
| 2026-05-08 18:05 | -34.24905 | -56.21324 | 14193 ft | 301 kts | 169° |
| 2026-05-08 18:06 | -34.26941 | -56.20676 | 13779 ft | 304 kts | 169° |
| 2026-05-08 18:06 | -34.28999 | -56.20022 | 13353 ft | 307 kts | 169° |
| 2026-05-08 18:06 | -34.31068 | -56.19361 | 12891 ft | 309 kts | 169° |
| 2026-05-08 18:06 | -34.33160 | -56.18691 | 12440 ft | 311 kts | 168° |
| 2026-05-08 18:07 | -34.35192 | -56.17727 | 11983 ft | 317 kts | 156° |
| 2026-05-08 18:07 | -34.37062 | -56.16279 | 11554 ft | 321 kts | 148° |
| 2026-05-08 18:07 | -34.38816 | -56.14747 | 11137 ft | 321 kts | 148° |
| 2026-05-08 18:07 | -34.40628 | -56.13174 | 10712 ft | 321 kts | 148° |
| 2026-05-08 18:08 | -34.42424 | -56.11625 | 10288 ft | 321 kts | 148° |
| 2026-05-08 18:08 | -34.44249 | -56.10056 | 9870 ft | 321 kts | 149° |
| 2026-05-08 18:08 | -34.46069 | -56.08494 | 9442 ft | 320 kts | 149° |
| 2026-05-08 18:08 | -34.47848 | -56.06960 | 8979 ft | 308 kts | 149° |
| 2026-05-08 18:09 | -34.49561 | -56.05475 | 8528 ft | 297 kts | 149° |
| 2026-05-08 18:09 | -34.51213 | -56.04041 | 8089 ft | 287 kts | 149° |
| 2026-05-08 18:09 | -34.52810 | -56.02653 | 7641 ft | 278 kts | 150° |
| 2026-05-08 18:09 | -34.54364 | -56.01303 | 7189 ft | 272 kts | 150° |
| 2026-05-08 18:10 | -34.55796 | -56.00062 | 6842 ft | 265 kts | 150° |
| 2026-05-08 18:10 | -34.57288 | -55.98772 | 6462 ft | 261 kts | 150° |
| 2026-05-08 18:10 | -34.58758 | -55.97502 | 6098 ft | 258 kts | 151° |
| 2026-05-08 18:10 | -34.60190 | -55.96262 | 5705 ft | 254 kts | 151° |
| 2026-05-08 18:11 | -34.61621 | -55.95022 | 5316 ft | 252 kts | 151° |
| 2026-05-08 18:11 | -34.63043 | -55.93790 | 4930 ft | 250 kts | 151° |
| 2026-05-08 18:11 | -34.64457 | -55.92563 | 4549 ft | 249 kts | 150° |
| 2026-05-08 18:11 | -34.65860 | -55.91333 | 4163 ft | 249 kts | 150° |
| 2026-05-08 18:12 | -34.67249 | -55.90092 | 3883 ft | 247 kts | 150° |
| 2026-05-08 18:12 | -34.68621 | -55.88854 | 3585 ft | 244 kts | 150° |
| 2026-05-08 18:12 | -34.70023 | -55.87726 | 3299 ft | 236 kts | 164° |
| 2026-05-08 18:12 | -34.71528 | -55.87234 | 3190 ft | 216 kts | 185° |
| 2026-05-08 18:13 | -34.72960 | -55.87356 | 3043 ft | 199 kts | 203° |
| 2026-05-08 18:13 | -34.74193 | -55.87957 | 2872 ft | 186 kts | 219° |
| 2026-05-08 18:13 | -34.75170 | -55.88923 | 2657 ft | 178 kts | 235° |
| 2026-05-08 18:13 | -34.75895 | -55.90080 | 2440 ft | 176 kts | 239° |
| 2026-05-08 18:14 | -34.76617 | -55.91253 | 2222 ft | 169 kts | 239° |
| 2026-05-08 18:14 | -34.77284 | -55.92337 | 1984 ft | 152 kts | 240° |
| 2026-05-08 18:14 | -34.77886 | -55.93319 | 1780 ft | 139 kts | 240° |
| 2026-05-08 18:14 | -34.78452 | -55.94248 | 1592 ft | 134 kts | 240° |
| 2026-05-08 18:15 | -34.79000 | -55.95145 | 1436 ft | 131 kts | 240° |
| 2026-05-08 18:15 | -34.79540 | -55.96030 | 1246 ft | 130 kts | 240° |
| 2026-05-08 18:15 | -34.80076 | -55.96910 | 1058 ft | 129 kts | 240° |
| 2026-05-08 18:15 | -34.80602 | -55.97772 | 864 ft | 129 kts | 240° |
| 2026-05-08 18:16 | -34.81144 | -55.98660 | 684 ft | 130 kts | 239° |
| 2026-05-08 18:16 | -34.81683 | -55.99538 | 513 ft | 129 kts | 239° |
| 2026-05-08 18:16 | -34.82226 | -56.00405 | 315 ft | 128 kts | 240° |
| 2026-05-08 18:16 | -34.82753 | -56.01284 | 125 ft | 128 kts | 240° |
| 2026-05-08 18:17 | -34.83241 | -56.02101 | 87 ft | 109 kts | 237° |
| 2026-05-08 18:17 | -34.83569 | -56.02642 | 83 ft | 39 kts | 233° |
| 2026-05-08 18:17 | -34.83661 | -56.02790 | 84 ft | 18 kts | 235° |
| 2026-05-08 18:17 | -34.83762 | -56.02855 | 86 ft | 20 kts | 177° |
| 2026-05-08 18:18 | -34.83899 | -56.02831 | 85 ft | 17 kts | 155° |
| 2026-05-08 18:18 | -34.83969 | -56.02742 | 85 ft | 15 kts | 91° |
| 2026-05-08 18:18 | -34.83950 | -56.02639 | 84 ft | 12 kts | 76° |
| 2026-05-08 18:18 | -34.83942 | -56.02524 | 82 ft | 16 kts | 91° |
| 2026-05-08 18:19 | -34.83947 | -56.02388 | 82 ft | 15 kts | 93° |
| 2026-05-08 18:19 | -34.83940 | -56.02282 | 82 ft | 11 kts | 67° |
| 2026-05-08 18:19 | -34.83871 | -56.02242 | 84 ft | 14 kts | 4° |
| 2026-05-08 18:19 | -34.83761 | -56.02203 | 85 ft | 18 kts | 42° |
| 2026-05-08 18:20 | -34.83698 | -56.02100 | 85 ft | 13 kts | 53° |
| 2026-05-08 18:20 | -34.83656 | -56.02032 | 84 ft | 8 kts | 54° |
| 2026-05-08 18:20 | -34.83639 | -56.01994 | 88 ft | 3 kts | 79° |
| 2026-05-08 18:20 | -34.83663 | -56.01961 | 86 ft | 8 kts | 144° |
| 2026-05-08 18:21 | -34.83696 | -56.01931 | 85 ft | 4 kts | 143° |
| 2026-05-08 18:21 | -34.83703 | -56.01924 | 85 ft | 0 kts | 143° |
| 2026-05-08 18:30 | -34.83703 | -56.01925 | 82 ft | 0 kts | 143° |